Time;durP1;ratioP1;P1;durP2;ratioP2;P2;SDS_P1;SDS_P2;PMS_P1;PMS_P2;Temp;Humidity;BMP_temperature;BMP_pressure;BME280_temperature;BME280_humidity;BME280_pressure;Samples;Min_cycle;Max_cycle;Signal;HPM_P1;HPM_P2
2021/10/07 00:01:27;;;;;;;3.03;2.72;;;12.60;79.40;;;12.16;66.02;95522.88;5049290;28;20220;-83
2021/10/07 00:03:55;;;;;;;4.55;2.97;;;12.60;80.10;;;12.17;66.16;95527.94;5017441;28;20207;-83
2021/10/07 00:06:22;;;;;;;4.13;3.13;;;12.70;79.40;;;12.15;66.13;95526.50;5043802;28;20737;-83
2021/10/07 00:08:50;;;;;;;6.68;3.58;;;12.60;80.20;;;12.22;65.92;95535.28;5037030;28;20203;-83
2021/10/07 00:11:17;;;;;;;3.38;2.97;;;12.60;79.40;;;12.17;66.02;95524.50;5052710;28;20223;-83
2021/10/07 00:13:46;;;;;;;2.95;2.53;;;12.60;79.50;;;12.24;66.13;95535.09;5069869;28;20203;-83
2021/10/07 00:16:13;;;;;;;5.97;2.70;;;12.60;79.40;;;12.19;65.80;95533.00;5049478;28;20307;-84
2021/10/07 00:18:41;;;;;;;4.30;2.88;;;12.60;79.40;;;12.18;65.65;95526.13;5053344;28;20202;-83
2021/10/07 00:21:16;;;;;;;3.08;2.60;;;12.70;79.50;;;12.23;65.72;95531.66;5021272;28;20250;-83
2021/10/07 00:26:42;;;;;;;3.63;2.63;;;12.70;79.40;;;12.23;65.86;95538.72;5036586;28;20215;-83
2021/10/07 00:31:56;;;;;;;3.72;2.53;;;12.70;79.40;;;12.15;65.99;95529.13;5037642;28;20277;-83
2021/10/07 00:34:30;;;;;;;3.35;2.78;;;12.70;79.30;;;12.20;65.94;95537.28;5037293;28;20554;-84
2021/10/07 00:39:27;;;;;;;4.50;2.80;;;12.70;79.30;;;12.20;65.96;95539.09;5052076;28;20207;-84
2021/10/07 00:41:56;;;;;;;3.42;2.72;;;12.70;79.30;;;12.20;65.83;95541.72;5035422;28;20222;-83
2021/10/07 00:44:23;;;;;;;4.00;2.92;;;12.70;79.30;;;12.13;65.84;95525.88;5036493;28;20553;-83
2021/10/07 00:47:02;;;;;;;4.22;3.33;;;12.60;79.30;;;12.17;65.87;95541.09;5016512;28;20828;-83
2021/10/07 00:49:38;;;;;;;5.18;2.80;;;12.60;79.40;;;12.16;65.86;95536.84;5049350;28;20713;-83
2021/10/07 00:52:13;;;;;;;5.57;3.00;;;12.70;79.40;;;12.15;65.82;95537.81;5019848;28;20223;-84
2021/10/07 00:54:41;;;;;;;5.00;3.20;;;12.60;79.30;;;12.14;65.76;95536.19;5054037;28;20207;-84
2021/10/07 00:57:10;;;;;;;4.25;3.05;;;12.60;80.10;;;12.09;65.90;95528.06;5036084;28;20211;-83
2021/10/07 00:59:37;;;;;;;4.45;3.38;;;12.60;79.30;;;12.10;66.08;95531.50;5035312;28;20219;-83
2021/10/07 01:02:08;;;;;;;3.72;3.00;;;12.60;79.30;;;12.11;66.12;95539.22;5013302;28;1122049;-83
2021/10/07 01:04:36;;;;;;;6.03;3.20;;;12.60;79.40;;;12.10;65.78;95540.19;5037184;28;20231;-84
2021/10/07 01:07:06;;;;;;;3.95;3.10;;;12.60;79.40;;;12.09;66.07;95543.81;5069730;28;20236;-82
2021/10/07 01:09:34;;;;;;;5.35;3.78;;;12.50;79.40;;;12.10;66.14;95542.84;5019612;28;20200;-83
2021/10/07 01:12:04;;;;;;;4.70;3.30;;;12.50;79.40;;;12.11;66.08;95533.16;5036523;28;20258;-83
2021/10/07 01:14:43;;;;;;;6.25;3.50;;;12.50;79.50;;;12.10;65.97;95542.84;5036453;28;20195;-83
2021/10/07 01:17:12;;;;;;;5.32;3.88;;;12.50;79.40;;;12.05;66.12;95536.50;5053223;28;20264;-82
2021/10/07 01:19:42;;;;;;;5.30;3.78;;;12.50;79.40;;;12.09;66.26;95543.03;5036564;28;20227;-84
2021/10/07 01:22:10;;;;;;;6.10;3.80;;;12.60;79.60;;;12.09;65.98;95538.56;5036698;28;20432;-83
2021/10/07 01:24:38;;;;;;;5.47;3.80;;;12.50;79.50;;;12.09;66.09;95538.56;5069106;28;20640;-84
2021/10/07 01:27:05;;;;;;;5.78;3.90;;;12.60;79.60;;;12.08;66.23;95533.50;5042320;28;20221;-83
2021/10/07 01:29:32;;;;;;;5.30;3.85;;;12.50;79.50;;;12.06;65.97;95533.69;5041096;28;20208;-84
2021/10/07 01:32:01;;;;;;;6.47;4.53;;;12.50;79.50;;;12.00;66.15;95514.22;5033504;28;20228;-83
2021/10/07 01:34:30;;;;;;;5.40;4.10;;;12.50;79.50;;;12.06;66.21;95522.34;5036349;28;20195;-83
2021/10/07 01:36:58;;;;;;;5.72;4.32;;;12.50;79.50;;;12.01;66.21;95512.38;5022889;28;20240;-83
2021/10/07 01:39:26;;;;;;;6.22;4.70;;;12.50;79.50;;;12.03;66.23;95523.53;5037273;28;20290;-83
2021/10/07 01:41:54;;;;;;;5.05;4.05;;;12.50;79.50;;;12.03;66.20;95522.75;5035701;28;20302;-84
2021/10/07 01:44:25;;;;;;;5.10;4.03;;;12.50;79.50;;;12.01;66.25;95523.72;5035774;28;20279;-83
2021/10/07 01:46:53;;;;;;;5.68;4.10;;;12.50;79.70;;;12.00;66.21;95516.03;5038762;28;20220;-84
2021/10/07 01:49:21;;;;;;;5.80;4.57;;;12.40;79.50;;;11.97;66.39;95524.28;5038166;28;20641;-83
2021/10/07 01:51:50;;;;;;;6.35;5.03;;;12.50;79.60;;;12.01;66.28;95528.16;5035695;28;20234;-84
2021/10/07 01:54:17;;;;;;;6.18;4.35;;;12.50;79.70;;;12.01;66.35;95529.00;5036136;28;20203;-84
2021/10/07 01:56:45;;;;;;;4.97;4.18;;;12.40;79.60;;;12.01;66.19;95526.38;5052571;28;20297;-83
2021/10/07 01:59:13;;;;;;;4.40;3.85;;;12.50;79.70;;;12.03;66.38;95535.88;5030411;28;20272;-83
2021/10/07 02:01:41;;;;;;;5.00;4.30;;;12.40;79.60;;;12.03;66.14;95533.25;5015398;28;20236;-84
2021/10/07 02:04:08;;;;;;;6.00;4.70;;;12.50;79.80;;;12.03;66.36;95531.44;5016146;28;20562;-84
2021/10/07 02:06:36;;;;;;;5.93;4.32;;;12.50;79.80;;;12.03;66.23;95520.91;5073160;28;20222;-84
2021/10/07 02:09:05;;;;;;;5.07;4.57;;;12.50;79.70;;;12.00;66.32;95523.94;5052222;28;20282;-82
2021/10/07 02:11:33;;;;;;;5.80;4.50;;;12.50;79.80;;;12.04;65.93;95525.19;5035710;28;20227;-84
2021/10/07 02:14:02;;;;;;;5.38;4.13;;;12.50;79.80;;;12.03;66.34;95526.16;5052499;28;20206;-83
2021/10/07 02:16:30;;;;;;;5.35;4.20;;;12.50;79.80;;;12.05;66.25;95529.44;5032388;28;20262;-84
2021/10/07 02:18:58;;;;;;;7.95;4.85;;;12.40;79.70;;;12.04;66.43;95533.06;5048149;28;20212;-84
2021/10/07 02:21:25;;;;;;;5.75;5.00;;;12.40;79.70;;;12.05;66.29;95523.34;5048790;28;20251;-84
2021/10/07 02:23:53;;;;;;;6.30;4.93;;;12.40;79.70;;;12.00;66.36;95524.72;5048491;28;20254;-83
2021/10/07 02:26:20;;;;;;;5.60;4.93;;;12.50;79.80;;;12.03;66.54;95525.38;5034724;28;20751;-83
2021/10/07 02:28:49;;;;;;;8.23;5.60;;;12.50;79.80;;;12.00;66.57;95524.72;5019432;28;20285;-83
2021/10/07 02:31:16;;;;;;;5.88;4.85;;;12.50;79.80;;;11.99;66.37;95527.56;5034939;28;20319;-84
2021/10/07 02:33:44;;;;;;;6.05;4.43;;;12.50;79.80;;;12.00;66.42;95526.56;5051510;28;20202;-83
2021/10/07 02:36:11;;;;;;;6.25;4.47;;;12.50;79.80;;;12.00;66.65;95537.88;5018987;28;20318;-83
2021/10/07 02:38:39;;;;;;;6.18;4.53;;;12.50;79.80;;;11.99;66.39;95533.59;5015542;28;20274;-84
2021/10/07 02:41:06;;;;;;;5.63;4.95;;;12.40;79.70;;;12.01;66.43;95531.63;5034796;28;20234;-83
2021/10/07 02:43:33;;;;;;;7.93;5.05;;;12.40;79.80;;;12.02;66.12;95540.31;5042461;28;20561;-82
2021/10/07 02:46:01;;;;;;;5.60;5.10;;;12.40;79.80;;;11.99;66.46;95532.81;5024515;28;20219;-83
2021/10/07 02:48:28;;;;;;;5.70;4.90;;;12.40;79.80;;;12.03;66.41;95543.78;5034182;28;20605;-83
2021/10/07 02:50:56;;;;;;;6.38;5.20;;;12.50;79.90;;;12.01;66.48;95536.88;5018228;28;20221;-83
2021/10/07 02:53:23;;;;;;;6.32;5.00;;;12.40;79.80;;;12.00;66.38;95534.44;5051923;28;20198;-81
2021/10/07 02:55:51;;;;;;;5.88;4.68;;;12.50;79.90;;;12.04;66.07;95546.22;5017087;28;20621;-81
2021/10/07 02:58:19;;;;;;;7.05;5.40;;;12.50;80.00;;;12.01;66.30;95538.69;5050013;28;20192;-81
2021/10/07 03:00:47;;;;;;;5.97;5.38;;;12.50;79.90;;;12.03;66.49;95544.56;5017304;28;20326;-81
2021/10/07 03:03:17;;;;;;;6.28;4.65;;;12.50;79.90;;;12.07;66.42;95551.09;5032511;28;20200;-81
2021/10/07 03:05:46;;;;;;;5.85;5.13;;;12.50;80.00;;;12.09;66.51;95551.72;5030255;28;20558;-81
2021/10/07 03:08:14;;;;;;;7.75;4.80;;;12.50;79.90;;;12.09;66.09;95554.34;5032424;28;20195;-82
2021/10/07 03:10:41;;;;;;;5.22;4.72;;;12.60;80.00;;;12.11;66.77;95549.72;5020734;28;20286;-82
2021/10/07 03:13:09;;;;;;;5.78;5.03;;;12.50;79.90;;;12.11;66.26;95554.19;5048668;28;20188;-81
2021/10/07 03:15:37;;;;;;;6.00;4.78;;;12.50;79.90;;;12.11;66.40;95552.34;5032217;28;20290;-82
2021/10/07 03:18:05;;;;;;;7.07;5.03;;;12.50;79.90;;;12.08;66.40;95555.34;4999756;28;20588;-82
2021/10/07 03:20:34;;;;;;;6.43;5.10;;;12.50;79.90;;;12.11;66.38;95552.34;5015263;28;20250;-82
2021/10/07 03:23:01;;;;;;;6.32;5.00;;;12.50;79.80;;;12.07;66.37;95545.84;5036861;28;20287;-82
2021/10/07 03:25:29;;;;;;;5.82;5.10;;;12.50;79.80;;;12.08;66.12;95549.28;5009270;28;20294;-83
2021/10/07 03:27:56;;;;;;;6.05;5.45;;;12.60;79.80;;;12.07;66.40;95545.03;5050408;28;20191;-83
2021/10/07 03:30:27;;;;;;;6.43;5.00;;;12.50;79.70;;;12.05;66.12;95547.84;5050384;28;20195;-83
2021/10/07 03:32:54;;;;;;;7.15;6.03;;;12.50;79.70;;;11.99;66.60;95541.50;5033997;28;20207;-83
2021/10/07 03:35:24;;;;;;;6.13;5.43;;;12.50;79.70;;;12.03;66.42;95549.03;5042640;28;20603;-82
2021/10/07 03:37:51;;;;;;;6.75;5.68;;;12.50;79.60;;;11.95;66.46;95540.22;5014613;28;20208;-83
2021/10/07 03:40:19;;;;;;;5.88;5.28;;;12.50;79.70;;;11.97;66.43;95554.03;5033397;28;20218;-84
2021/10/07 03:42:47;;;;;;;6.57;5.25;;;12.50;79.70;;;11.97;66.47;95550.56;5042478;28;20208;-83
2021/10/07 03:45:16;;;;;;;5.95;5.05;;;12.60;79.80;;;11.93;66.38;95550.09;5030319;28;20206;-83
2021/10/07 03:47:47;;;;;;;6.95;5.60;;;12.40;79.60;;;11.97;66.34;95561.91;5030415;28;20779;-83
2021/10/07 03:50:15;;;;;;;8.63;6.20;;;12.40;79.60;;;11.94;66.46;95556.19;5012597;28;20219;-83
2021/10/07 03:52:42;;;;;;;6.82;5.70;;;12.40;79.70;;;11.92;66.75;95566.06;5027896;28;20227;-84
2021/10/07 03:55:10;;;;;;;7.47;6.22;;;12.40;79.70;;;11.89;66.74;95558.53;5041456;28;20608;-83
2021/10/07 03:57:37;;;;;;;7.47;5.85;;;12.40;79.70;;;11.84;66.62;95556.47;5050821;28;20227;-83
2021/10/07 04:00:08;;;;;;;7.50;5.75;;;12.40;79.80;;;11.85;66.69;95566.78;5068327;28;20215;-82
2021/10/07 04:02:38;;;;;;;8.18;5.80;;;12.30;79.80;;;11.81;66.58;95559.44;5036509;28;20233;-83
2021/10/07 04:05:06;;;;;;;7.82;5.90;;;12.40;79.80;;;11.80;66.75;95558.66;5036227;28;20199;-83
2021/10/07 04:07:33;;;;;;;5.72;5.13;;;12.30;79.80;;;11.79;66.70;95569.31;5035568;28;20238;-83
2021/10/07 04:10:01;;;;;;;8.02;5.50;;;12.30;79.90;;;11.74;66.73;95566.44;5035922;28;20207;-83
2021/10/07 04:12:28;;;;;;;7.07;5.30;;;12.30;79.90;;;11.74;66.96;95574.31;5035823;28;20772;-83
2021/10/07 04:14:55;;;;;;;5.50;5.00;;;12.30;80.00;;;11.73;67.04;95570.06;5035594;28;20196;-83
2021/10/07 04:17:22;;;;;;;6.32;5.40;;;12.20;80.00;;;11.69;66.83;95566.97;5036318;28;20227;-82
2021/10/07 04:19:49;;;;;;;5.82;5.22;;;12.20;80.00;;;11.72;66.94;95577.13;5037118;28;20585;-84
2021/10/07 04:22:16;;;;;;;5.60;5.10;;;12.20;80.00;;;11.69;67.14;95567.81;5020822;28;20723;-84
2021/10/07 04:24:43;;;;;;;6.00;5.40;;;12.20;80.10;;;11.66;66.88;95564.72;5037019;28;20223;-82
2021/10/07 04:27:11;;;;;;;6.32;5.18;;;12.20;80.00;;;11.67;66.89;95569.78;5018974;28;20350;-83
2021/10/07 04:29:38;;;;;;;5.70;5.10;;;12.20;80.10;;;11.68;66.80;95571.44;5037651;28;20203;-82
2021/10/07 04:32:06;;;;;;;6.93;5.18;;;12.10;80.10;;;11.68;67.43;95566.19;5037396;28;20228;-81
2021/10/07 04:34:33;;;;;;;5.95;5.30;;;12.10;80.20;;;11.69;67.12;95564.34;5037597;28;20203;-82
2021/10/07 04:37:00;;;;;;;7.32;5.20;;;12.10;80.20;;;11.65;67.11;95566.53;5036080;28;20207;-80
2021/10/07 04:39:27;;;;;;;5.25;4.75;;;12.20;80.70;;;11.64;67.04;95567.53;5037584;28;20212;-81
2021/10/07 04:41:55;;;;;;;6.22;4.93;;;12.10;80.30;;;11.67;67.29;95566.38;5034999;28;20703;-83
2021/10/07 04:44:23;;;;;;;5.93;5.13;;;12.20;80.40;;;11.71;67.15;95567.63;5053805;28;20203;-83
2021/10/07 04:46:50;;;;;;;5.68;4.80;;;12.10;80.40;;;11.72;67.12;95571.88;5033797;28;20224;-82
2021/10/07 04:49:18;;;;;;;5.18;4.70;;;12.10;80.40;;;11.72;67.05;95579.78;5019774;28;20202;-81
2021/10/07 04:51:46;;;;;;;5.30;4.80;;;12.10;80.40;;;11.67;67.20;95575.06;5046687;28;20324;-83
2021/10/07 04:54:13;;;;;;;5.10;4.57;;;12.10;80.40;;;11.71;67.17;95583.38;5046342;28;20653;-83
2021/10/07 04:56:40;;;;;;;6.90;4.80;;;12.10;80.40;;;11.68;67.05;95584.56;5053385;28;20243;-82
2021/10/07 04:59:09;;;;;;;5.85;5.18;;;12.10;80.40;;;11.68;67.29;95583.75;5035715;28;20216;-82
2021/10/07 05:01:36;;;;;;;5.40;4.90;;;12.20;80.40;;;11.66;67.12;95580.50;5036171;28;20611;-83
2021/10/07 05:04:04;;;;;;;5.50;4.50;;;12.20;81.20;;;11.68;67.09;95591.63;5034579;28;20204;-83
2021/10/07 05:06:31;;;;;;;6.60;5.45;;;12.20;80.40;;;11.65;67.27;95584.13;5056593;28;20216;-82
2021/10/07 05:08:59;;;;;;;5.70;5.10;;;12.20;80.40;;;11.61;67.23;95582.84;5017058;28;20503;-84
2021/10/07 05:11:26;;;;;;;5.65;5.03;;;12.10;80.50;;;11.63;67.26;95588.72;5036046;28;20223;-83
2021/10/07 05:13:53;;;;;;;5.47;4.97;;;12.10;80.40;;;11.63;67.15;95593.97;5036717;28;20200;-83
2021/10/07 05:16:21;;;;;;;6.47;5.15;;;12.10;80.50;;;11.55;67.57;95589.66;5035148;28;20269;-83
2021/10/07 05:18:49;;;;;;;6.00;5.40;;;12.10;80.50;;;11.52;67.43;95584.75;5052473;28;20198;-82
2021/10/07 05:21:17;;;;;;;7.45;5.10;;;12.10;80.50;;;11.56;67.45;95593.06;5034806;28;20318;-83
2021/10/07 05:23:44;;;;;;;5.70;5.10;;;12.10;80.60;;;11.59;67.62;95598.78;5035548;28;20619;-82
2021/10/07 05:26:11;;;;;;;5.68;5.07;;;12.10;80.60;;;11.56;67.54;95598.31;5035073;28;20215;-82
2021/10/07 05:28:38;;;;;;;6.03;5.35;;;12.10;80.60;;;11.60;67.75;95604.88;5036207;28;20192;-84
2021/10/07 05:31:05;;;;;;;6.25;5.43;;;12.10;80.60;;;11.50;67.51;95590.19;5036415;28;20290;-83
2021/10/07 05:33:33;;;;;;;6.40;5.55;;;12.00;80.50;;;11.58;67.73;95604.22;5036201;28;20680;-84
2021/10/07 05:36:00;;;;;;;5.43;4.93;;;12.00;80.50;;;11.56;68.00;95606.22;5052969;28;20211;-83
2021/10/07 05:38:27;;;;;;;6.18;5.22;;;12.10;80.60;;;11.57;67.67;95594.72;5035866;28;20235;-84
2021/10/07 05:40:55;;;;;;;5.20;4.70;;;12.10;80.70;;;11.51;68.33;95591.81;5019560;28;20226;-83
2021/10/07 05:43:22;;;;;;;5.50;4.57;;;12.00;80.60;;;11.47;67.91;95590.53;5052640;28;20192;-82
2021/10/07 05:45:49;;;;;;;5.35;4.85;;;12.00;80.70;;;11.47;67.85;95598.41;5054226;28;20216;-82
2021/10/07 05:48:16;;;;;;;5.25;4.47;;;12.00;80.70;;;11.51;67.89;95612.00;5036227;28;20729;-83
2021/10/07 05:50:44;;;;;;;4.80;4.30;;;12.00;80.80;;;11.50;67.95;95607.78;5052580;28;20214;-83
2021/10/07 05:53:12;;;;;;;4.32;3.92;;;12.00;80.80;;;11.50;68.10;95611.19;5036184;28;20246;-83
2021/10/07 05:55:39;;;;;;;4.25;3.85;;;12.00;80.90;;;11.48;67.65;95602.66;5052224;28;20228;-82
2021/10/07 05:58:06;;;;;;;4.50;3.88;;;12.00;80.90;;;11.52;67.82;95606.59;5035558;28;20574;-83
2021/10/07 06:00:33;;;;;;;4.43;4.03;;;12.00;81.00;;;11.54;67.79;95611.66;5019411;28;20739;-83
2021/10/07 06:03:01;;;;;;;4.13;3.83;;;12.00;81.00;;;11.50;67.90;95599.88;5035794;28;20326;-82
2021/10/07 06:05:28;;;;;;;5.35;3.78;;;12.00;81.00;;;11.54;67.85;95611.66;5052144;28;20199;-82
2021/10/07 06:07:55;;;;;;;4.00;3.70;;;12.00;81.00;;;11.54;68.07;95615.09;5018721;28;20547;-82
2021/10/07 06:10:23;;;;;;;4.45;3.90;;;12.00;81.00;;;11.49;68.01;95606.13;5018998;28;20203;-82
2021/10/07 06:12:51;;;;;;;4.07;3.70;;;12.00;81.00;;;11.56;68.19;95619.34;5051672;28;20305;-83
2021/10/07 06:15:18;;;;;;;5.10;4.15;;;12.10;81.10;;;11.54;68.11;95611.66;5035435;28;20294;-82
2021/10/07 06:17:46;;;;;;;4.35;3.75;;;12.00;81.00;;;11.54;68.13;95619.53;5034365;28;20251;-81
2021/10/07 06:20:46;;;;;;;4.93;4.20;;;12.00;81.10;;;11.53;67.94;95615.28;5014773;28;20258;-82
2021/10/07 06:23:07;;;;;;;3.60;3.30;;;12.00;81.10;;;11.57;67.91;95610.47;5043682;28;20212;-82
2021/10/07 06:25:37;;;;;;;4.20;3.78;;;12.00;81.10;;;11.56;67.87;95601.78;5048356;28;20271;-82
2021/10/07 06:28:07;;;;;;;3.85;3.35;;;12.00;81.10;;;11.58;68.21;95620.00;5031539;28;20582;-81
2021/10/07 06:30:35;;;;;;;4.35;3.95;;;12.00;81.20;;;11.57;68.01;95608.69;5048457;28;20543;-80
2021/10/07 06:33:02;;;;;;;4.15;3.58;;;12.00;81.20;;;11.56;68.27;95614.94;5034609;28;20200;-80
2021/10/07 06:35:30;;;;;;;4.70;4.18;;;12.00;81.20;;;11.55;68.33;95618.53;5033954;28;20254;-79
2021/10/07 06:37:57;;;;;;;4.50;4.10;;;12.00;81.10;;;11.57;68.19;95623.59;5031895;28;20253;-79
2021/10/07 06:40:25;;;;;;;4.57;3.90;;;12.00;81.20;;;11.54;68.13;95619.53;5031986;28;20231;-79
2021/10/07 06:42:53;;;;;;;4.50;4.10;;;12.00;81.20;;;11.54;68.31;95615.09;5049373;28;20234;-80
2021/10/07 06:45:20;;;;;;;4.53;4.05;;;12.10;81.30;;;11.56;68.30;95629.84;5057918;28;20272;-79
2021/10/07 06:47:48;;;;;;;3.88;3.58;;;12.00;81.20;;;11.53;68.27;95628.41;5028029;28;20327;-79
2021/10/07 06:50:15;;;;;;;4.90;4.03;;;12.10;81.40;;;11.59;68.54;95635.56;5049866;28;20221;-79
2021/10/07 06:52:43;;;;;;;4.90;3.90;;;12.00;81.40;;;11.59;68.31;95630.31;5033805;28;20208;-80
2021/10/07 06:55:11;;;;;;;3.92;3.63;;;12.10;81.50;;;11.62;68.18;95629.13;5033983;28;20282;-80
2021/10/07 06:57:42;;;;;;;4.75;4.05;;;12.10;81.60;;;11.68;68.38;95633.66;5017500;28;20280;-80
2021/10/07 07:00:11;;;;;;;4.55;4.15;;;12.10;81.70;;;11.69;68.13;95627.41;5056586;28;20192;-80
2021/10/07 07:02:40;;;;;;;4.88;4.38;;;12.10;81.60;;;11.68;68.28;95628.41;5033526;28;20258;-80
2021/10/07 07:05:09;;;;;;;4.63;4.22;;;12.10;81.60;;;11.69;68.09;95628.25;5031407;28;20269;-80
2021/10/07 07:07:37;;;;;;;4.68;4.28;;;12.10;81.60;;;11.75;68.06;95639.84;5049770;28;20697;-80
2021/10/07 07:10:06;;;;;;;5.10;4.40;;;12.10;81.50;;;11.75;68.14;95634.56;5032782;28;20200;-79
2021/10/07 07:12:41;;;;;;;4.90;4.40;;;12.10;81.60;;;11.76;68.02;95638.84;5034695;28;20214;-78
2021/10/07 07:15:08;;;;;;;5.75;4.88;;;12.20;81.60;;;11.77;68.28;95637.84;5032103;28;20215;-79
2021/10/07 07:17:35;;;;;;;5.85;5.00;;;12.20;81.60;;;11.76;68.41;95638.84;5030229;28;20277;-80
2021/10/07 07:20:04;;;;;;;5.68;5.07;;;12.20;81.60;;;11.80;68.01;95641.94;5049644;28;20275;-78
2021/10/07 07:22:32;;;;;;;5.32;4.82;;;12.20;81.60;;;11.79;68.05;95646.38;5046134;28;20227;-78
2021/10/07 07:24:59;;;;;;;5.70;4.72;;;12.20;81.50;;;11.79;68.24;95651.63;5045879;28;20258;-76
2021/10/07 07:27:27;;;;;;;5.32;4.57;;;12.20;81.50;;;11.80;68.08;95652.44;5012206;28;20262;-77
2021/10/07 07:29:55;;;;;;;5.30;4.38;;;12.30;81.50;;;11.81;68.25;95656.69;5031264;28;20227;-77
2021/10/07 07:32:22;;;;;;;4.95;4.45;;;12.20;81.50;;;11.81;68.26;95659.31;5034641;28;20231;-77
2021/10/07 07:34:51;;;;;;;5.35;4.60;;;12.20;81.50;;;11.83;67.94;95662.59;5052930;28;20195;-77
2021/10/07 07:37:20;;;;;;;6.28;5.20;;;12.20;81.50;;;11.83;67.89;95652.09;5034478;28;20481;-78
2021/10/07 07:39:47;;;;;;;6.57;5.40;;;12.20;81.40;;;11.84;68.10;95658.97;5036841;28;20188;-78
2021/10/07 07:42:14;;;;;;;5.28;4.78;;;12.20;81.40;;;11.83;68.53;95666.03;5026216;28;20282;-77
2021/10/07 07:44:42;;;;;;;5.13;4.63;;;12.30;81.60;;;11.87;68.35;95669.13;5054332;28;20195;-78
2021/10/07 07:47:09;;;;;;;5.60;4.80;;;12.20;81.60;;;11.88;68.19;95672.56;5052709;28;20203;-79
2021/10/07 07:49:38;;;;;;;5.35;4.85;;;12.30;81.70;;;11.92;68.16;95664.13;5036455;28;20703;-79
2021/10/07 07:52:07;;;;;;;5.75;4.85;;;12.30;81.60;;;11.94;68.04;95675.28;5020395;28;20242;-77
2021/10/07 07:54:34;;;;;;;5.60;5.10;;;12.30;81.80;;;11.93;68.11;95675.47;5053823;28;20272;-77
2021/10/07 07:57:02;;;;;;;5.68;5.07;;;12.30;81.70;;;11.99;68.20;95678.22;5052782;28;20243;-77
2021/10/07 07:59:29;;;;;;;5.75;5.25;;;12.30;81.70;;;12.03;68.29;95691.00;5053772;28;20191;-77
2021/10/07 08:01:57;;;;;;;5.55;5.05;;;12.30;81.80;;;12.06;68.22;95686.19;5053350;28;20223;-77
2021/10/07 08:04:24;;;;;;;6.90;5.68;;;12.40;81.90;;;12.11;68.39;95688.28;5020193;28;20202;-79
2021/10/07 08:06:52;;;;;;;6.60;5.55;;;12.40;81.90;;;12.14;68.05;95693.16;5034659;28;20219;-77
2021/10/07 08:09:19;;;;;;;7.35;5.72;;;12.40;81.80;;;12.15;68.10;95687.72;5053455;28;20271;-77
2021/10/07 08:11:46;;;;;;;6.95;6.25;;;12.40;81.80;;;12.19;68.03;95692.63;5036305;28;20219;-77
2021/10/07 08:14:13;;;;;;;6.40;5.75;;;12.50;81.90;;;12.20;67.90;95689.81;5053395;28;20222;-77
2021/10/07 08:16:40;;;;;;;7.63;5.93;;;12.60;82.00;;;12.22;68.02;95689.63;5036832;28;20257;-77
2021/10/07 08:19:08;;;;;;;7.57;6.47;;;12.50;81.90;;;12.25;68.02;95699.78;5036553;28;20195;-77
2021/10/07 08:21:35;;;;;;;6.90;6.20;;;12.60;81.90;;;12.26;67.98;95704.84;5052922;28;20318;-77
2021/10/07 08:24:07;;;;;;;6.63;5.72;;;12.50;81.70;;;12.29;68.04;95701.88;5053002;28;20282;-78
2021/10/07 08:26:35;;;;;;;7.55;6.20;;;12.60;81.80;;;12.29;68.20;95701.88;5043720;28;20224;-79
2021/10/07 08:29:04;;;;;;;6.82;5.90;;;12.60;81.90;;;12.35;68.18;95705.56;5036386;28;20612;-80
2021/10/07 08:31:31;;;;;;;8.35;6.43;;;12.60;81.90;;;12.33;68.14;95702.34;5059071;28;20274;-79
2021/10/07 08:33:58;;;;;;;8.10;6.05;;;12.70;82.00;;;12.36;68.16;95701.94;5052953;28;20257;-80
2021/10/07 08:36:26;;;;;;;7.00;6.25;;;12.70;82.10;;;12.47;68.25;95712.03;5036271;28;20215;-79
2021/10/07 08:38:53;;;;;;;6.78;6.10;;;12.80;82.20;;;12.51;68.24;95711.63;5052876;28;20657;-80
2021/10/07 08:41:21;;;;;;;6.80;6.18;;;12.80;82.20;;;12.60;68.31;95716.63;5035376;28;20215;-77
2021/10/07 08:43:52;;;;;;;6.82;6.18;;;12.80;82.20;;;12.67;68.52;95718.50;5035986;28;20196;-80
2021/10/07 08:46:23;;;;;;;8.07;6.60;;;12.90;82.40;;;12.68;68.27;95710.41;5052797;28;20227;-81
2021/10/07 08:48:51;;;;;;;6.60;5.90;;;13.00;82.40;;;12.77;68.05;95713.78;5052395;28;20192;-81
2021/10/07 08:51:19;;;;;;;7.95;7.15;;;13.00;82.30;;;12.79;68.05;95706.50;5035925;28;20281;-78
2021/10/07 08:53:46;;;;;;;7.63;6.82;;;13.00;82.20;;;12.80;68.07;95716.84;5052164;28;20544;-78
2021/10/07 08:56:14;;;;;;;7.53;6.70;;;13.10;82.20;;;12.86;67.96;95723.19;5036240;28;20651;-77
2021/10/07 08:58:41;;;;;;;7.03;6.28;;;13.10;82.10;;;12.81;67.95;95715.84;5066888;28;20202;-78
2021/10/07 09:01:42;;;;;;;6.95;6.25;;;13.10;82.00;;;12.87;68.11;95722.19;5052766;28;20231;-78
2021/10/07 09:04:26;;;;;;;7.05;6.00;;;13.10;82.10;;;12.89;67.96;95720.19;5067876;28;20184;-79
2021/10/07 09:07:07;;;;;;;6.40;5.80;;;13.20;82.30;;;12.97;68.17;95713.97;5051239;28;20576;-80
2021/10/07 09:09:40;;;;;;;7.18;6.18;;;13.20;83.10;;;13.00;68.04;95716.25;5052635;28;20223;-80
2021/10/07 09:12:16;;;;;;;7.38;6.60;;;13.20;82.30;;;13.06;67.90;95723.41;5036342;28;20207;-79
2021/10/07 09:14:48;;;;;;;7.20;6.38;;;13.30;82.20;;;13.09;67.95;95725.66;5036253;28;20289;-80
2021/10/07 09:17:19;;;;;;;7.38;6.22;;;13.40;82.20;;;13.12;67.84;95737.63;5053085;28;20239;-77
2021/10/07 09:19:49;;;;;;;7.68;6.80;;;13.40;82.10;;;13.12;67.87;95724.44;5035437;28;20206;-80
2021/10/07 09:22:25;;;;;;;8.35;6.78;;;13.40;82.00;;;13.13;67.79;95724.28;5052043;28;20875;-79
2021/10/07 09:24:58;;;;;;;7.25;6.13;;;13.40;81.90;;;13.09;67.78;95714.31;5034527;28;20237;-79
2021/10/07 09:27:35;;;;;;;7.68;6.88;;;13.50;81.90;;;13.17;67.99;95726.53;5052306;28;20215;-81
2021/10/07 09:30:10;;;;;;;7.38;6.60;;;13.50;81.90;;;13.20;67.80;95726.97;5050052;28;20188;-80
2021/10/07 09:32:51;;;;;;;7.47;6.75;;;13.50;82.00;;;13.22;68.00;95717.06;5053893;28;20238;-80
2021/10/07 09:35:22;;;;;;;8.07;6.93;;;13.50;82.70;;;13.27;68.22;95719.94;5035621;28;20286;-79
2021/10/07 09:37:56;;;;;;;7.32;6.50;;;13.50;82.00;;;13.30;68.13;95718.75;5050999;28;20211;-80
2021/10/07 09:40:26;;;;;;;7.95;7.10;;;13.50;82.00;;;13.35;67.80;95726.91;5035861;28;20186;-78
2021/10/07 09:43:03;;;;;;;8.02;7.22;;;13.60;82.10;;;13.37;67.65;95721.47;5051619;28;20219;-77
2021/10/07 09:45:34;;;;;;;9.57;6.85;;;13.60;81.90;;;13.43;67.70;95726.00;5043963;28;20601;-78
2021/10/07 09:48:05;;;;;;;8.30;6.88;;;13.70;82.10;;;13.45;67.67;95721.34;5019031;28;20295;-78
2021/10/07 09:50:39;;;;;;;8.25;7.03;;;13.70;81.90;;;13.46;67.62;95728.25;5033521;28;20645;-79
2021/10/07 09:53:18;;;;;;;8.15;6.72;;;13.70;81.80;;;13.48;67.83;95723.59;5033859;28;20226;-79
2021/10/07 09:55:49;;;;;;;9.07;7.40;;;13.70;81.90;;;13.51;67.71;95725.88;5049516;28;20645;-79
2021/10/07 09:58:23;;;;;;;9.20;7.15;;;13.80;81.90;;;13.55;67.74;95731.56;5032741;28;20293;-76
2021/10/07 10:00:56;;;;;;;9.13;6.95;;;13.80;82.00;;;13.59;67.71;95728.34;5029673;28;20262;-81
2021/10/07 10:03:24;;;;;;;9.43;7.28;;;13.90;82.10;;;13.65;67.81;95728.63;5021102;28;20226;-80
2021/10/07 10:05:52;;;;;;;8.48;6.95;;;13.80;82.00;;;13.70;67.72;95728.88;5051666;28;20759;-80
2021/10/07 10:08:21;;;;;;;9.02;7.03;;;13.90;82.10;;;13.75;67.58;95724.63;5066978;28;20204;-80
2021/10/07 10:10:52;;;;;;;9.35;7.15;;;13.90;82.10;;;13.79;67.40;95732.16;5033211;28;20215;-80
2021/10/07 10:13:19;;;;;;;7.93;7.10;;;14.00;82.00;;;13.84;67.54;95732.41;5051542;28;20202;-81
2021/10/07 10:15:47;;;;;;;8.50;7.57;;;14.00;82.00;;;13.83;67.53;95726.31;5051610;28;20223;-81
2021/10/07 10:18:16;;;;;;;11.05;8.38;;;14.10;81.90;;;13.88;67.52;95729.19;5050416;28;20199;-80
2021/10/07 10:20:52;;;;;;;9.63;7.78;;;14.10;81.90;;;13.90;67.32;95729.81;5035561;28;20249;-81
2021/10/07 10:23:24;;;;;;;8.52;7.63;;;14.10;81.80;;;13.91;67.19;95723.56;5073650;28;20689;-81
2021/10/07 10:25:57;;;;;;;8.63;7.82;;;14.10;81.70;;;13.95;67.41;95729.22;5051556;28;20243;-81
2021/10/07 10:28:52;;;;;;;10.07;8.15;;;14.10;81.70;;;13.96;67.35;95733.50;5050955;28;20195;-79
2021/10/07 10:31:35;;;;;;;9.40;8.25;;;14.20;81.70;;;13.99;67.37;95734.94;5049042;28;20207;-81
2021/10/07 10:34:14;;;;;;;11.15;7.65;;;14.20;81.60;;;14.01;67.35;95732.94;5018469;28;20545;-81
2021/10/07 10:37:00;;;;;;;8.98;7.65;;;14.20;81.70;;;14.02;67.17;95734.56;5035034;28;20211;-81